sensor_id;sensor_type;location;lat;lon;timestamp;temperature;humidity
11079;DHT22;5592;49.234;7.268;2023-08-30T00:01:49;13.00;99.90
11079;DHT22;5592;49.234;7.268;2023-08-30T00:04:15;13.00;99.90
11079;DHT22;5592;49.234;7.268;2023-08-30T00:06:41;13.00;99.90
11079;DHT22;5592;49.234;7.268;2023-08-30T00:09:06;13.00;99.90
11079;DHT22;5592;49.234;7.268;2023-08-30T00:11:32;13.00;99.90
11079;DHT22;5592;49.234;7.268;2023-08-30T00:14:04;13.10;99.90
11079;DHT22;5592;49.234;7.268;2023-08-30T00:16:31;13.10;99.90
11079;DHT22;5592;49.234;7.268;2023-08-30T00:18:57;13.10;99.90
11079;DHT22;5592;49.234;7.268;2023-08-30T00:21:22;13.10;99.90
11079;DHT22;5592;49.234;7.268;2023-08-30T00:23:48;13.10;99.90
11079;DHT22;5592;49.234;7.268;2023-08-30T00:26:13;13.10;99.90
11079;DHT22;5592;49.234;7.268;2023-08-30T00:28:39;13.00;99.90
11079;DHT22;5592;49.234;7.268;2023-08-30T00:31:05;13.00;99.90
11079;DHT22;5592;49.234;7.268;2023-08-30T00:33:30;13.00;99.90
11079;DHT22;5592;49.234;7.268;2023-08-30T00:35:59;13.00;99.90
11079;DHT22;5592;49.234;7.268;2023-08-30T00:38:26;13.00;99.90
11079;DHT22;5592;49.234;7.268;2023-08-30T00:40:52;13.00;99.90
11079;DHT22;5592;49.234;7.268;2023-08-30T00:43:19;13.10;99.90
11079;DHT22;5592;49.234;7.268;2023-08-30T00:45:44;13.10;99.90
11079;DHT22;5592;49.234;7.268;2023-08-30T00:48:11;13.20;99.90
11079;DHT22;5592;49.234;7.268;2023-08-30T00:50:37;13.10;99.90
11079;DHT22;5592;49.234;7.268;2023-08-30T00:53:03;13.00;99.90
11079;DHT22;5592;49.234;7.268;2023-08-30T00:55:32;13.00;99.90
11079;DHT22;5592;49.234;7.268;2023-08-30T00:57:59;13.00;99.90
11079;DHT22;5592;49.234;7.268;2023-08-30T01:00:25;12.90;99.90
11079;DHT22;5592;49.234;7.268;2023-08-30T01:02:50;12.80;99.90
11079;DHT22;5592;49.234;7.268;2023-08-30T01:05:16;12.70;99.90
11079;DHT22;5592;49.234;7.268;2023-08-30T01:07:43;12.70;99.90
11079;DHT22;5592;49.234;7.268;2023-08-30T01:10:09;12.60;99.90
11079;DHT22;5592;49.234;7.268;2023-08-30T01:12:44;12.50;99.90
11079;DHT22;5592;49.234;7.268;2023-08-30T01:15:13;12.40;99.90
11079;DHT22;5592;49.234;7.268;2023-08-30T01:17:42;12.40;99.90
11079;DHT22;5592;49.234;7.268;2023-08-30T01:20:09;12.40;99.90
11079;DHT22;5592;49.234;7.268;2023-08-30T01:23:08;12.40;99.90
11079;DHT22;5592;49.234;7.268;2023-08-30T01:28:08;12.30;99.90
11079;DHT22;5592;49.234;7.268;2023-08-30T01:30:37;12.20;99.90
11079;DHT22;5592;49.234;7.268;2023-08-30T01:33:04;12.20;99.90
11079;DHT22;5592;49.234;7.268;2023-08-30T01:35:32;12.20;99.90
11079;DHT22;5592;49.234;7.268;2023-08-30T01:38:05;12.20;99.90
11079;DHT22;5592;49.234;7.268;2023-08-30T01:40:35;12.10;99.90
11079;DHT22;5592;49.234;7.268;2023-08-30T01:43:02;12.10;99.90
11079;DHT22;5592;49.234;7.268;2023-08-30T01:45:35;12.10;99.90
11079;DHT22;5592;49.234;7.268;2023-08-30T01:48:02;12.10;99.90
11079;DHT22;5592;49.234;7.268;2023-08-30T01:50:28;12.10;99.90
11079;DHT22;5592;49.234;7.268;2023-08-30T01:52:55;12.10;99.90
11079;DHT22;5592;49.234;7.268;2023-08-30T01:55:22;12.00;99.90
11079;DHT22;5592;49.234;7.268;2023-08-30T01:57:48;12.10;99.90
11079;DHT22;5592;49.234;7.268;2023-08-30T02:00:14;12.00;99.90
11079;DHT22;5592;49.234;7.268;2023-08-30T02:02:40;12.00;99.90
11079;DHT22;5592;49.234;7.268;2023-08-30T02:05:06;11.90;99.90
11079;DHT22;5592;49.234;7.268;2023-08-30T02:08:05;11.80;99.90
11079;DHT22;5592;49.234;7.268;2023-08-30T02:10:37;11.70;99.90
11079;DHT22;5592;49.234;7.268;2023-08-30T02:13:06;11.70;99.90
11079;DHT22;5592;49.234;7.268;2023-08-30T02:15:33;11.70;99.90
11079;DHT22;5592;49.234;7.268;2023-08-30T02:18:00;11.60;99.90
11079;DHT22;5592;49.234;7.268;2023-08-30T02:20:26;11.60;99.90
11079;DHT22;5592;49.234;7.268;2023-08-30T02:22:51;11.50;99.90
11079;DHT22;5592;49.234;7.268;2023-08-30T02:25:17;11.50;99.90
11079;DHT22;5592;49.234;7.268;2023-08-30T02:27:42;11.30;99.90
11079;DHT22;5592;49.234;7.268;2023-08-30T02:30:08;11.30;99.90
11079;DHT22;5592;49.234;7.268;2023-08-30T02:32:34;11.20;99.90
11079;DHT22;5592;49.234;7.268;2023-08-30T02:35:02;11.10;99.90
11079;DHT22;5592;49.234;7.268;2023-08-30T02:37:27;11.00;99.90
11079;DHT22;5592;49.234;7.268;2023-08-30T02:39:53;10.90;99.90
11079;DHT22;5592;49.234;7.268;2023-08-30T02:42:18;10.90;99.90
11079;DHT22;5592;49.234;7.268;2023-08-30T02:44:44;10.80;99.90
11079;DHT22;5592;49.234;7.268;2023-08-30T02:47:09;10.90;99.90
11079;DHT22;5592;49.234;7.268;2023-08-30T02:49:35;11.00;99.90
11079;DHT22;5592;49.234;7.268;2023-08-30T02:52:01;11.00;99.90
11079;DHT22;5592;49.234;7.268;2023-08-30T02:54:26;11.00;99.90
11079;DHT22;5592;49.234;7.268;2023-08-30T02:56:52;11.00;99.90
11079;DHT22;5592;49.234;7.268;2023-08-30T02:59:17;11.00;99.90
11079;DHT22;5592;49.234;7.268;2023-08-30T03:01:43;10.90;99.90
11079;DHT22;5592;49.234;7.268;2023-08-30T03:04:09;10.90;99.90
11079;DHT22;5592;49.234;7.268;2023-08-30T03:06:35;10.90;99.90
11079;DHT22;5592;49.234;7.268;2023-08-30T03:09:01;10.80;99.90
11079;DHT22;5592;49.234;7.268;2023-08-30T03:11:26;10.90;99.90
11079;DHT22;5592;49.234;7.268;2023-08-30T03:13:55;11.00;99.90
11079;DHT22;5592;49.234;7.268;2023-08-30T03:16:20;11.20;99.90
11079;DHT22;5592;49.234;7.268;2023-08-30T03:18:46;11.30;99.90
11079;DHT22;5592;49.234;7.268;2023-08-30T03:21:12;11.50;99.90
11079;DHT22;5592;49.234;7.268;2023-08-30T03:23:39;11.70;99.90
11079;DHT22;5592;49.234;7.268;2023-08-30T03:26:14;11.90;99.90
11079;DHT22;5592;49.234;7.268;2023-08-30T03:28:42;12.00;99.90
11079;DHT22;5592;49.234;7.268;2023-08-30T03:31:18;12.10;99.90
11079;DHT22;5592;49.234;7.268;2023-08-30T03:33:44;12.20;99.90
11079;DHT22;5592;49.234;7.268;2023-08-30T03:36:11;12.30;99.90
11079;DHT22;5592;49.234;7.268;2023-08-30T03:38:37;12.40;99.90
11079;DHT22;5592;49.234;7.268;2023-08-30T03:41:03;12.40;99.90
11079;DHT22;5592;49.234;7.268;2023-08-30T03:43:30;12.50;99.90
11079;DHT22;5592;49.234;7.268;2023-08-30T03:45:55;12.50;99.90
11079;DHT22;5592;49.234;7.268;2023-08-30T03:48:22;12.50;99.90
11079;DHT22;5592;49.234;7.268;2023-08-30T03:50:47;12.50;99.90
11079;DHT22;5592;49.234;7.268;2023-08-30T03:53:13;12.60;99.90
11079;DHT22;5592;49.234;7.268;2023-08-30T03:55:39;12.70;99.90
11079;DHT22;5592;49.234;7.268;2023-08-30T03:58:05;12.70;99.90
11079;DHT22;5592;49.234;7.268;2023-08-30T04:00:31;12.70;99.90
11079;DHT22;5592;49.234;7.268;2023-08-30T04:02:56;12.70;99.90
11079;DHT22;5592;49.234;7.268;2023-08-30T04:05:22;12.70;99.90
11079;DHT22;5592;49.234;7.268;2023-08-30T04:07:47;12.80;99.90
11079;DHT22;5592;49.234;7.268;2023-08-30T04:10:13;12.80;99.90
11079;DHT22;5592;49.234;7.268;2023-08-30T04:12:38;12.70;99.90
11079;DHT22;5592;49.234;7.268;2023-08-30T04:15:04;12.80;99.90
11079;DHT22;5592;49.234;7.268;2023-08-30T04:17:30;12.80;99.90
11079;DHT22;5592;49.234;7.268;2023-08-30T04:19:55;12.80;99.90
11079;DHT22;5592;49.234;7.268;2023-08-30T04:22:21;12.80;99.90
11079;DHT22;5592;49.234;7.268;2023-08-30T04:24:46;12.80;99.90
11079;DHT22;5592;49.234;7.268;2023-08-30T04:27:12;12.80;99.90
11079;DHT22;5592;49.234;7.268;2023-08-30T04:29:38;12.80;99.90
11079;DHT22;5592;49.234;7.268;2023-08-30T04:32:04;12.80;99.90
11079;DHT22;5592;49.234;7.268;2023-08-30T04:34:30;12.80;99.90
11079;DHT22;5592;49.234;7.268;2023-08-30T04:36:56;12.80;99.90
11079;DHT22;5592;49.234;7.268;2023-08-30T04:39:22;12.80;99.90
11079;DHT22;5592;49.234;7.268;2023-08-30T04:41:47;12.90;99.90
11079;DHT22;5592;49.234;7.268;2023-08-30T04:44:13;12.90;99.90
11079;DHT22;5592;49.234;7.268;2023-08-30T04:46:39;12.90;99.90
11079;DHT22;5592;49.234;7.268;2023-08-30T04:49:04;12.90;99.90
11079;DHT22;5592;49.234;7.268;2023-08-30T04:51:30;12.90;99.90
11079;DHT22;5592;49.234;7.268;2023-08-30T04:53:56;12.90;99.90
11079;DHT22;5592;49.234;7.268;2023-08-30T04:56:21;13.00;99.90
11079;DHT22;5592;49.234;7.268;2023-08-30T04:58:47;13.00;99.90
11079;DHT22;5592;49.234;7.268;2023-08-30T05:01:12;13.00;99.90
11079;DHT22;5592;49.234;7.268;2023-08-30T05:03:39;13.00;99.90
11079;DHT22;5592;49.234;7.268;2023-08-30T05:06:05;13.00;99.90
11079;DHT22;5592;49.234;7.268;2023-08-30T05:08:31;13.00;99.90
11079;DHT22;5592;49.234;7.268;2023-08-30T05:10:57;13.00;99.90
11079;DHT22;5592;49.234;7.268;2023-08-30T05:13:22;13.10;99.90
11079;DHT22;5592;49.234;7.268;2023-08-30T05:15:48;13.10;99.90
11079;DHT22;5592;49.234;7.268;2023-08-30T05:18:13;13.10;99.90
11079;DHT22;5592;49.234;7.268;2023-08-30T05:20:39;13.20;99.90
11079;DHT22;5592;49.234;7.268;2023-08-30T05:23:04;13.20;99.90
11079;DHT22;5592;49.234;7.268;2023-08-30T05:25:30;13.20;99.90
11079;DHT22;5592;49.234;7.268;2023-08-30T05:27:55;13.20;99.90
11079;DHT22;5592;49.234;7.268;2023-08-30T05:30:21;13.20;99.90
11079;DHT22;5592;49.234;7.268;2023-08-30T05:32:47;13.20;99.90
11079;DHT22;5592;49.234;7.268;2023-08-30T05:35:12;13.20;99.90
11079;DHT22;5592;49.234;7.268;2023-08-30T05:37:38;13.20;99.90
11079;DHT22;5592;49.234;7.268;2023-08-30T05:40:04;13.20;99.90
11079;DHT22;5592;49.234;7.268;2023-08-30T05:42:29;13.20;99.90
11079;DHT22;5592;49.234;7.268;2023-08-30T05:44:55;13.20;99.90
11079;DHT22;5592;49.234;7.268;2023-08-30T05:47:21;13.20;99.90
11079;DHT22;5592;49.234;7.268;2023-08-30T05:49:47;13.20;99.90
11079;DHT22;5592;49.234;7.268;2023-08-30T05:52:15;13.20;99.90
11079;DHT22;5592;49.234;7.268;2023-08-30T05:54:41;13.20;99.90
11079;DHT22;5592;49.234;7.268;2023-08-30T05:57:07;13.30;99.90
11079;DHT22;5592;49.234;7.268;2023-08-30T05:59:33;13.30;99.90
11079;DHT22;5592;49.234;7.268;2023-08-30T06:02:00;13.30;99.90
11079;DHT22;5592;49.234;7.268;2023-08-30T06:04:26;13.40;99.90
11079;DHT22;5592;49.234;7.268;2023-08-30T06:06:51;13.40;99.90
11079;DHT22;5592;49.234;7.268;2023-08-30T06:09:17;13.40;99.90
11079;DHT22;5592;49.234;7.268;2023-08-30T06:11:42;13.40;99.90
11079;DHT22;5592;49.234;7.268;2023-08-30T06:14:08;13.50;99.90
11079;DHT22;5592;49.234;7.268;2023-08-30T06:16:34;13.60;99.90
11079;DHT22;5592;49.234;7.268;2023-08-30T06:18:59;13.70;99.90
11079;DHT22;5592;49.234;7.268;2023-08-30T06:21:25;13.70;99.90
11079;DHT22;5592;49.234;7.268;2023-08-30T06:23:51;13.70;99.90
11079;DHT22;5592;49.234;7.268;2023-08-30T06:26:17;13.80;99.90
11079;DHT22;5592;49.234;7.268;2023-08-30T06:28:43;13.90;99.90
11079;DHT22;5592;49.234;7.268;2023-08-30T06:31:10;14.00;99.90
11079;DHT22;5592;49.234;7.268;2023-08-30T06:33:35;14.00;99.90
11079;DHT22;5592;49.234;7.268;2023-08-30T06:36:01;14.10;99.90
11079;DHT22;5592;49.234;7.268;2023-08-30T06:38:27;14.10;99.90
11079;DHT22;5592;49.234;7.268;2023-08-30T06:40:52;14.20;99.90
11079;DHT22;5592;49.234;7.268;2023-08-30T06:43:19;14.30;99.90
11079;DHT22;5592;49.234;7.268;2023-08-30T06:45:44;14.40;99.90
11079;DHT22;5592;49.234;7.268;2023-08-30T06:48:10;14.50;99.90
11079;DHT22;5592;49.234;7.268;2023-08-30T06:50:36;14.50;99.90
11079;DHT22;5592;49.234;7.268;2023-08-30T06:53:03;14.60;99.90
11079;DHT22;5592;49.234;7.268;2023-08-30T06:55:29;14.50;99.90
11079;DHT22;5592;49.234;7.268;2023-08-30T06:57:55;14.60;99.90
11079;DHT22;5592;49.234;7.268;2023-08-30T07:00:20;14.60;99.90
11079;DHT22;5592;49.234;7.268;2023-08-30T07:02:46;14.60;99.90
11079;DHT22;5592;49.234;7.268;2023-08-30T07:05:12;14.70;99.90
11079;DHT22;5592;49.234;7.268;2023-08-30T07:07:38;14.80;99.90
11079;DHT22;5592;49.234;7.268;2023-08-30T07:10:04;14.90;99.90
11079;DHT22;5592;49.234;7.268;2023-08-30T07:12:30;15.00;99.90
11079;DHT22;5592;49.234;7.268;2023-08-30T07:14:55;15.10;99.90
11079;DHT22;5592;49.234;7.268;2023-08-30T07:17:21;15.30;99.90
11079;DHT22;5592;49.234;7.268;2023-08-30T07:19:47;15.40;99.90
11079;DHT22;5592;49.234;7.268;2023-08-30T07:22:13;15.50;99.90
11079;DHT22;5592;49.234;7.268;2023-08-30T07:24:38;15.60;99.90
11079;DHT22;5592;49.234;7.268;2023-08-30T07:27:04;15.70;99.90
11079;DHT22;5592;49.234;7.268;2023-08-30T07:29:31;15.80;99.90
11079;DHT22;5592;49.234;7.268;2023-08-30T07:31:57;15.70;99.90
11079;DHT22;5592;49.234;7.268;2023-08-30T07:34:22;15.80;99.90
11079;DHT22;5592;49.234;7.268;2023-08-30T07:36:48;16.00;99.90
11079;DHT22;5592;49.234;7.268;2023-08-30T07:39:14;16.40;99.90
11079;DHT22;5592;49.234;7.268;2023-08-30T07:41:39;16.80;99.90
11079;DHT22;5592;49.234;7.268;2023-08-30T07:44:05;17.30;99.90
11079;DHT22;5592;49.234;7.268;2023-08-30T07:46:31;17.80;99.90
11079;DHT22;5592;49.234;7.268;2023-08-30T07:48:56;18.50;99.90
11079;DHT22;5592;49.234;7.268;2023-08-30T07:51:25;19.00;99.90
11079;DHT22;5592;49.234;7.268;2023-08-30T07:53:50;19.20;99.90
11079;DHT22;5592;49.234;7.268;2023-08-30T07:56:16;19.00;99.90
11079;DHT22;5592;49.234;7.268;2023-08-30T07:58:43;19.00;99.90
11079;DHT22;5592;49.234;7.268;2023-08-30T08:01:08;19.00;99.90
11079;DHT22;5592;49.234;7.268;2023-08-30T08:03:34;18.70;99.90
11079;DHT22;5592;49.234;7.268;2023-08-30T08:06:00;18.20;99.90
11079;DHT22;5592;49.234;7.268;2023-08-30T08:08:25;18.20;99.90
11079;DHT22;5592;49.234;7.268;2023-08-30T08:10:51;18.20;99.90
11079;DHT22;5592;49.234;7.268;2023-08-30T08:13:16;18.20;99.90
11079;DHT22;5592;49.234;7.268;2023-08-30T08:15:42;18.10;99.90
11079;DHT22;5592;49.234;7.268;2023-08-30T08:18:09;17.90;99.90
11079;DHT22;5592;49.234;7.268;2023-08-30T08:20:35;18.00;99.90
11079;DHT22;5592;49.234;7.268;2023-08-30T08:23:02;17.80;99.90
11079;DHT22;5592;49.234;7.268;2023-08-30T08:25:27;17.70;99.90
11079;DHT22;5592;49.234;7.268;2023-08-30T08:27:54;17.90;99.90
11079;DHT22;5592;49.234;7.268;2023-08-30T08:30:19;18.20;99.90
11079;DHT22;5592;49.234;7.268;2023-08-30T08:32:46;19.00;99.90
11079;DHT22;5592;49.234;7.268;2023-08-30T08:35:13;19.80;99.90
11079;DHT22;5592;49.234;7.268;2023-08-30T08:37:39;20.30;99.90
11079;DHT22;5592;49.234;7.268;2023-08-30T08:40:05;20.40;99.90
11079;DHT22;5592;49.234;7.268;2023-08-30T08:42:35;20.20;99.90
11079;DHT22;5592;49.234;7.268;2023-08-30T08:45:02;20.40;99.90
11079;DHT22;5592;49.234;7.268;2023-08-30T08:47:30;21.70;99.90
11079;DHT22;5592;49.234;7.268;2023-08-30T08:49:56;23.00;99.90
11079;DHT22;5592;49.234;7.268;2023-08-30T08:52:23;24.30;99.90
11079;DHT22;5592;49.234;7.268;2023-08-30T08:54:52;25.70;99.90
11079;DHT22;5592;49.234;7.268;2023-08-30T08:57:19;27.20;99.90
11079;DHT22;5592;49.234;7.268;2023-08-30T08:59:46;28.10;99.90
11079;DHT22;5592;49.234;7.268;2023-08-30T09:02:14;28.50;99.90
11079;DHT22;5592;49.234;7.268;2023-08-30T09:04:40;28.90;99.90
11079;DHT22;5592;49.234;7.268;2023-08-30T09:07:06;29.10;99.90
11079;DHT22;5592;49.234;7.268;2023-08-30T09:09:33;28.50;99.90
11079;DHT22;5592;49.234;7.268;2023-08-30T09:11:59;28.60;99.90
11079;DHT22;5592;49.234;7.268;2023-08-30T09:14:24;28.90;99.90
11079;DHT22;5592;49.234;7.268;2023-08-30T09:17:01;29.40;99.90
11079;DHT22;5592;49.234;7.268;2023-08-30T09:19:27;30.40;99.90
11079;DHT22;5592;49.234;7.268;2023-08-30T09:21:57;31.10;99.90
11079;DHT22;5592;49.234;7.268;2023-08-30T09:24:23;30.70;99.90
11079;DHT22;5592;49.234;7.268;2023-08-30T09:26:51;30.60;99.90
11079;DHT22;5592;49.234;7.268;2023-08-30T09:29:18;30.70;99.90
11079;DHT22;5592;49.234;7.268;2023-08-30T09:31:44;30.60;99.90
11079;DHT22;5592;49.234;7.268;2023-08-30T09:34:10;30.90;99.90
11079;DHT22;5592;49.234;7.268;2023-08-30T09:36:39;31.80;99.90
11079;DHT22;5592;49.234;7.268;2023-08-30T09:39:09;32.00;99.90
11079;DHT22;5592;49.234;7.268;2023-08-30T09:41:45;31.30;99.90
11079;DHT22;5592;49.234;7.268;2023-08-30T09:46:45;30.60;99.90
11079;DHT22;5592;49.234;7.268;2023-08-30T09:49:11;30.80;99.90
11079;DHT22;5592;49.234;7.268;2023-08-30T09:51:40;31.30;99.90
11079;DHT22;5592;49.234;7.268;2023-08-30T09:54:17;31.50;99.90
11079;DHT22;5592;49.234;7.268;2023-08-30T09:56:44;31.90;99.90
11079;DHT22;5592;49.234;7.268;2023-08-30T09:59:14;32.00;99.90
11079;DHT22;5592;49.234;7.268;2023-08-30T10:01:43;31.30;99.70
11079;DHT22;5592;49.234;7.268;2023-08-30T10:04:10;30.40;99.30
11079;DHT22;5592;49.234;7.268;2023-08-30T10:06:37;29.50;99.60
11079;DHT22;5592;49.234;7.268;2023-08-30T10:09:04;29.40;99.90
11079;DHT22;5592;49.234;7.268;2023-08-30T10:11:33;29.10;99.90
11079;DHT22;5592;49.234;7.268;2023-08-30T10:14:00;28.90;99.90
11079;DHT22;5592;49.234;7.268;2023-08-30T10:16:26;29.30;99.90
11079;DHT22;5592;49.234;7.268;2023-08-30T10:19:02;29.20;99.90
11079;DHT22;5592;49.234;7.268;2023-08-30T10:21:29;29.00;99.90
11079;DHT22;5592;49.234;7.268;2023-08-30T10:23:56;28.60;99.90
11079;DHT22;5592;49.234;7.268;2023-08-30T10:26:24;28.90;99.90
11079;DHT22;5592;49.234;7.268;2023-08-30T10:28:53;28.30;99.90
11079;DHT22;5592;49.234;7.268;2023-08-30T10:31:19;28.50;99.90
11079;DHT22;5592;49.234;7.268;2023-08-30T10:33:55;28.70;99.90
11079;DHT22;5592;49.234;7.268;2023-08-30T10:36:25;28.50;99.90
11079;DHT22;5592;49.234;7.268;2023-08-30T10:38:54;28.50;99.90
11079;DHT22;5592;49.234;7.268;2023-08-30T10:41:26;28.60;99.90
11079;DHT22;5592;49.234;7.268;2023-08-30T10:43:55;28.20;99.90
11079;DHT22;5592;49.234;7.268;2023-08-30T10:46:31;27.80;99.90
11079;DHT22;5592;49.234;7.268;2023-08-30T10:49:19;28.00;99.90
11079;DHT22;5592;49.234;7.268;2023-08-30T10:51:44;27.30;99.90
11079;DHT22;5592;49.234;7.268;2023-08-30T10:54:17;27.30;99.90
11079;DHT22;5592;49.234;7.268;2023-08-30T10:57:12;27.00;99.90
11079;DHT22;5592;49.234;7.268;2023-08-30T10:59:38;26.70;99.90
11079;DHT22;5592;49.234;7.268;2023-08-30T11:02:05;26.50;99.90
11079;DHT22;5592;49.234;7.268;2023-08-30T11:04:31;26.90;99.90
11079;DHT22;5592;49.234;7.268;2023-08-30T11:06:57;25.80;99.90
11079;DHT22;5592;49.234;7.268;2023-08-30T11:09:24;25.20;99.90
11079;DHT22;5592;49.234;7.268;2023-08-30T11:11:51;24.50;99.90
11079;DHT22;5592;49.234;7.268;2023-08-30T11:14:18;24.20;99.90
11079;DHT22;5592;49.234;7.268;2023-08-30T11:16:44;24.80;99.90
11079;DHT22;5592;49.234;7.268;2023-08-30T11:19:11;25.30;99.90
11079;DHT22;5592;49.234;7.268;2023-08-30T11:21:44;25.20;99.90
11079;DHT22;5592;49.234;7.268;2023-08-30T11:24:10;24.70;99.90
11079;DHT22;5592;49.234;7.268;2023-08-30T11:26:37;25.20;99.90
11079;DHT22;5592;49.234;7.268;2023-08-30T11:29:07;25.20;99.90
11079;DHT22;5592;49.234;7.268;2023-08-30T11:31:33;24.80;99.90
11079;DHT22;5592;49.234;7.268;2023-08-30T11:33:59;24.60;99.90
11079;DHT22;5592;49.234;7.268;2023-08-30T11:36:29;24.60;99.90
11079;DHT22;5592;49.234;7.268;2023-08-30T11:38:55;24.70;99.90
11079;DHT22;5592;49.234;7.268;2023-08-30T11:41:22;24.70;99.90
11079;DHT22;5592;49.234;7.268;2023-08-30T11:43:48;24.40;99.90
11079;DHT22;5592;49.234;7.268;2023-08-30T11:46:14;24.10;99.90
11079;DHT22;5592;49.234;7.268;2023-08-30T11:48:40;23.80;99.90
11079;DHT22;5592;49.234;7.268;2023-08-30T11:51:07;24.30;99.90
11079;DHT22;5592;49.234;7.268;2023-08-30T11:53:34;24.10;99.90
11079;DHT22;5592;49.234;7.268;2023-08-30T11:56:00;24.10;99.90
11079;DHT22;5592;49.234;7.268;2023-08-30T11:58:25;23.50;99.90
11079;DHT22;5592;49.234;7.268;2023-08-30T12:00:52;23.20;99.90
11079;DHT22;5592;49.234;7.268;2023-08-30T12:03:19;22.90;99.90
11079;DHT22;5592;49.234;7.268;2023-08-30T12:05:49;22.70;99.90
11079;DHT22;5592;49.234;7.268;2023-08-30T12:08:30;22.70;99.90
11079;DHT22;5592;49.234;7.268;2023-08-30T12:10:57;23.00;99.90
11079;DHT22;5592;49.234;7.268;2023-08-30T12:13:33;23.40;99.90
11079;DHT22;5592;49.234;7.268;2023-08-30T12:15:59;23.70;99.90
11079;DHT22;5592;49.234;7.268;2023-08-30T12:18:27;23.50;99.90
11079;DHT22;5592;49.234;7.268;2023-08-30T12:21:03;23.90;99.90
11079;DHT22;5592;49.234;7.268;2023-08-30T12:23:30;23.70;99.90
11079;DHT22;5592;49.234;7.268;2023-08-30T12:26:03;23.20;99.90
11079;DHT22;5592;49.234;7.268;2023-08-30T12:28:36;23.20;99.90
11079;DHT22;5592;49.234;7.268;2023-08-30T12:31:02;23.20;99.90
11079;DHT22;5592;49.234;7.268;2023-08-30T12:33:29;22.90;99.90
11079;DHT22;5592;49.234;7.268;2023-08-30T12:35:55;22.70;99.90
11079;DHT22;5592;49.234;7.268;2023-08-30T12:38:22;22.60;99.90
11079;DHT22;5592;49.234;7.268;2023-08-30T12:40:52;22.60;99.90
11079;DHT22;5592;49.234;7.268;2023-08-30T12:43:18;22.70;99.90
11079;DHT22;5592;49.234;7.268;2023-08-30T12:45:45;22.60;99.90
11079;DHT22;5592;49.234;7.268;2023-08-30T12:48:12;22.50;99.90
11079;DHT22;5592;49.234;7.268;2023-08-30T12:50:42;22.70;99.90
11079;DHT22;5592;49.234;7.268;2023-08-30T12:53:08;22.50;99.90
11079;DHT22;5592;49.234;7.268;2023-08-30T12:55:34;22.60;99.90
11079;DHT22;5592;49.234;7.268;2023-08-30T12:58:00;22.50;99.90
11079;DHT22;5592;49.234;7.268;2023-08-30T13:00:25;22.50;99.90
11079;DHT22;5592;49.234;7.268;2023-08-30T13:02:51;22.50;99.90
11079;DHT22;5592;49.234;7.268;2023-08-30T13:05:17;22.50;99.90
11079;DHT22;5592;49.234;7.268;2023-08-30T13:07:46;22.60;99.90
11079;DHT22;5592;49.234;7.268;2023-08-30T13:10:12;22.40;99.90
11079;DHT22;5592;49.234;7.268;2023-08-30T13:12:37;22.30;99.90
11079;DHT22;5592;49.234;7.268;2023-08-30T13:15:04;22.30;99.90
11079;DHT22;5592;49.234;7.268;2023-08-30T13:17:30;22.40;99.90
11079;DHT22;5592;49.234;7.268;2023-08-30T13:19:55;22.60;99.90
11079;DHT22;5592;49.234;7.268;2023-08-30T13:22:23;22.80;99.90
11079;DHT22;5592;49.234;7.268;2023-08-30T13:24:49;22.70;99.90
11079;DHT22;5592;49.234;7.268;2023-08-30T13:27:14;22.40;99.90
11079;DHT22;5592;49.234;7.268;2023-08-30T13:29:40;22.10;99.90
11079;DHT22;5592;49.234;7.268;2023-08-30T13:32:06;22.30;99.90
11079;DHT22;5592;49.234;7.268;2023-08-30T13:34:31;22.40;99.90
11079;DHT22;5592;49.234;7.268;2023-08-30T13:36:57;22.40;99.90
11079;DHT22;5592;49.234;7.268;2023-08-30T13:39:22;22.00;99.90
11079;DHT22;5592;49.234;7.268;2023-08-30T13:41:48;21.80;99.90
11079;DHT22;5592;49.234;7.268;2023-08-30T13:44:14;21.60;99.90
11079;DHT22;5592;49.234;7.268;2023-08-30T13:46:40;21.30;99.90
11079;DHT22;5592;49.234;7.268;2023-08-30T13:49:06;21.20;99.90
11079;DHT22;5592;49.234;7.268;2023-08-30T13:51:32;21.30;99.90
11079;DHT22;5592;49.234;7.268;2023-08-30T13:53:58;21.50;99.90
11079;DHT22;5592;49.234;7.268;2023-08-30T13:56:24;21.70;99.90
11079;DHT22;5592;49.234;7.268;2023-08-30T13:58:50;21.40;99.90
11079;DHT22;5592;49.234;7.268;2023-08-30T14:01:16;21.50;99.90
11079;DHT22;5592;49.234;7.268;2023-08-30T14:03:42;21.50;99.90
11079;DHT22;5592;49.234;7.268;2023-08-30T14:06:08;21.40;99.90
11079;DHT22;5592;49.234;7.268;2023-08-30T14:08:34;21.50;99.90
11079;DHT22;5592;49.234;7.268;2023-08-30T14:11:00;21.60;99.90
11079;DHT22;5592;49.234;7.268;2023-08-30T14:13:25;21.70;99.90
11079;DHT22;5592;49.234;7.268;2023-08-30T14:15:53;21.60;99.90
11079;DHT22;5592;49.234;7.268;2023-08-30T14:18:19;21.40;99.90
11079;DHT22;5592;49.234;7.268;2023-08-30T14:20:44;21.60;99.90
11079;DHT22;5592;49.234;7.268;2023-08-30T14:23:10;22.00;99.90
11079;DHT22;5592;49.234;7.268;2023-08-30T14:25:36;22.20;99.90
11079;DHT22;5592;49.234;7.268;2023-08-30T14:28:02;22.40;99.90
11079;DHT22;5592;49.234;7.268;2023-08-30T14:30:29;22.20;99.90
11079;DHT22;5592;49.234;7.268;2023-08-30T14:32:55;22.20;99.90
11079;DHT22;5592;49.234;7.268;2023-08-30T14:35:21;22.10;99.90
11079;DHT22;5592;49.234;7.268;2023-08-30T14:37:47;21.70;99.90
11079;DHT22;5592;49.234;7.268;2023-08-30T14:40:13;21.40;99.90
11079;DHT22;5592;49.234;7.268;2023-08-30T14:42:39;21.20;99.90
11079;DHT22;5592;49.234;7.268;2023-08-30T14:45:05;20.90;99.90
11079;DHT22;5592;49.234;7.268;2023-08-30T14:47:33;20.40;99.90
11079;DHT22;5592;49.234;7.268;2023-08-30T14:49:59;20.10;99.90
11079;DHT22;5592;49.234;7.268;2023-08-30T14:52:26;19.90;99.90
11079;DHT22;5592;49.234;7.268;2023-08-30T14:54:52;19.80;99.90
11079;DHT22;5592;49.234;7.268;2023-08-30T14:57:17;19.80;99.90
11079;DHT22;5592;49.234;7.268;2023-08-30T14:59:43;19.90;99.90
11079;DHT22;5592;49.234;7.268;2023-08-30T15:02:08;20.00;99.90
11079;DHT22;5592;49.234;7.268;2023-08-30T15:04:34;20.20;99.90
11079;DHT22;5592;49.234;7.268;2023-08-30T15:06:59;20.40;99.90
11079;DHT22;5592;49.234;7.268;2023-08-30T15:09:25;20.40;99.90
11079;DHT22;5592;49.234;7.268;2023-08-30T15:11:50;20.40;99.90
11079;DHT22;5592;49.234;7.268;2023-08-30T15:14:16;20.40;99.90
11079;DHT22;5592;49.234;7.268;2023-08-30T15:16:42;20.50;99.90
11079;DHT22;5592;49.234;7.268;2023-08-30T15:19:07;20.60;99.90
11079;DHT22;5592;49.234;7.268;2023-08-30T15:21:33;20.80;99.90
11079;DHT22;5592;49.234;7.268;2023-08-30T15:23:58;21.00;99.90
11079;DHT22;5592;49.234;7.268;2023-08-30T15:26:24;21.10;99.90
11079;DHT22;5592;49.234;7.268;2023-08-30T15:28:50;21.10;99.90
11079;DHT22;5592;49.234;7.268;2023-08-30T15:31:16;20.80;99.90
11079;DHT22;5592;49.234;7.268;2023-08-30T15:33:45;20.80;99.90
11079;DHT22;5592;49.234;7.268;2023-08-30T15:36:11;20.80;99.90
11079;DHT22;5592;49.234;7.268;2023-08-30T15:38:37;20.70;99.90
11079;DHT22;5592;49.234;7.268;2023-08-30T15:41:12;20.50;99.90
11079;DHT22;5592;49.234;7.268;2023-08-30T15:43:39;20.10;99.90
11079;DHT22;5592;49.234;7.268;2023-08-30T15:46:06;19.90;99.90
11079;DHT22;5592;49.234;7.268;2023-08-30T15:48:31;19.80;99.90